Sumiyoshi Maru No.2 — JD3665 — position and weather

sailwx.info

Track history (hours):
 
Tides and Currents Weather Stations Pressure Air Temp Water Temp Dewpoint Dewpoint Depression Visibility Wind Speed Wind Dir Waves Ship Positions

Sumiyoshi Maru No.2

Last reported at 2017-Oct-15 18:14 UTC. Time now 2017-Oct-19 15:04 UTC.
Position N 34°36' E 135°06'.

Length 61 m.

Type: Cargo ship. MMSI: 431005214.

Date/timePositionNaut miles runAvg speedWind from/ knotsBaromVisibWave heightAir tempDewpointWater temp
2017-Oct-15 18:14N 34°36' E 135°06'311.6
2017-Oct-15 18:00N 34°36' E 135°09'611.3
2017-Oct-15 17:30N 34°36' E 135°16'9 0.5
2017-Oct-14 21:59N 34°35' E 135°27'1 1.9
2017-Oct-14 21:25N 34°35' E 135°26'4 0.2
2017-Oct-13 20:50N 34°32' E 135°23'410.2
2017-Oct-13 20:27N 34°30' E 135°18'510.3
2017-Oct-13 19:58N 34°27' E 135°13'14 9.1
2017-Oct-13 18:23N 34°14' E 135°06'1 0.7
2017-Oct-13 16:40N 34°15' E 135°07'0 0.0
2017-Oct-13 16:25N 34°15' E 135°07'0 0.0
2017-Oct-13 15:46N 34°15' E 135°07'0 0.0
2017-Oct-13 15:28N 34°15' E 135°07'0 0.0
2017-Oct-13 14:58N 34°15' E 135°07'0 0.0
2017-Oct-13 14:28N 34°15' E 135°07'0 0.0
2017-Oct-13 13:52N 34°15' E 135°07'0 0.0
2017-Oct-13 12:58N 34°15' E 135°07'0 0.0
2017-Oct-13 12:28N 34°15' E 135°07'0 0.0
2017-Oct-13 11:58N 34°15' E 135°07'0 0.0
2017-Oct-13 11:19N 34°15' E 135°07'0 0.9
2017-Oct-13 11:00N 34°14' E 135°07'1 0.2
2017-Oct-13 05:54N 34°15' E 135°06'0 0.0
2017-Oct-13 05:30N 34°15' E 135°06'0 0.0
2017-Oct-13 04:54N 34°15' E 135°06'1910.0
2017-Oct-13 03:02N 34°33' E 135°03'  
2017-Oct-10 16:22N 35°18' E 139°45'410.7
2017-Oct-10 16:00N 35°15' E 139°47'611.1
2017-Oct-10 15:29N 35°09' E 139°45'611.4
2017-Oct-10 15:00N 35°04' E 139°42'  
Track history (hours):
 
Tides and Currents Weather Stations Pressure Air Temp Water Temp Dewpoint Dewpoint Depression Visibility Wind Speed Wind Dir Waves Ship Positions

Sumiyoshi Maru No.2

Last reported at 2017-Oct-15 18:14 UTC. Time now 2017-Oct-19 15:04 UTC.
Position N 34°36' E 135°06'.

Length 61 m.

Type: Cargo ship. MMSI: 431005214.

Date/timePositionNaut miles runAvg speedWind from/ knotsBaromVisibWave heightAir tempDewpointWater temp
2017-Oct-15 18:14N 34°36' E 135°06'311.6
2017-Oct-15 18:00N 34°36' E 135°09'611.3
2017-Oct-15 17:30N 34°36' E 135°16'9 0.5
2017-Oct-14 21:59N 34°35' E 135°27'1 1.9
2017-Oct-14 21:25N 34°35' E 135°26'4 0.2
2017-Oct-13 20:50N 34°32' E 135°23'410.2
2017-Oct-13 20:27N 34°30' E 135°18'510.3
2017-Oct-13 19:58N 34°27' E 135°13'14 9.1
2017-Oct-13 18:23N 34°14' E 135°06'1 0.7
2017-Oct-13 16:40N 34°15' E 135°07'0 0.0
2017-Oct-13 16:25N 34°15' E 135°07'0 0.0
2017-Oct-13 15:46N 34°15' E 135°07'0 0.0
2017-Oct-13 15:28N 34°15' E 135°07'0 0.0
2017-Oct-13 14:58N 34°15' E 135°07'0 0.0
2017-Oct-13 14:28N 34°15' E 135°07'0 0.0
2017-Oct-13 13:52N 34°15' E 135°07'0 0.0
2017-Oct-13 12:58N 34°15' E 135°07'0 0.0
2017-Oct-13 12:28N 34°15' E 135°07'0 0.0
2017-Oct-13 11:58N 34°15' E 135°07'0 0.0
2017-Oct-13 11:19N 34°15' E 135°07'0 0.9
2017-Oct-13 11:00N 34°14' E 135°07'1 0.2
2017-Oct-13 05:54N 34°15' E 135°06'0 0.0
2017-Oct-13 05:30N 34°15' E 135°06'0 0.0
2017-Oct-13 04:54N 34°15' E 135°06'1910.0
2017-Oct-13 03:02N 34°33' E 135°03'  
2017-Oct-10 16:22N 35°18' E 139°45'410.7
2017-Oct-10 16:00N 35°15' E 139°47'611.1
2017-Oct-10 15:29N 35°09' E 139°45'611.4
2017-Oct-10 15:00N 35°04' E 139°42'  

Dump ship's entire track history